Time;durP1;ratioP1;P1;durP2;ratioP2;P2;SDS_P1;SDS_P2;PMS_P1;PMS_P2;Temp;Humidity;BMP_temperature;BMP_pressure;BME280_temperature;BME280_humidity;BME280_pressure;Samples;Min_cycle;Max_cycle;Signal;HPM_P1;HPM_P2
2022/12/08 00:00:06;;;;;;;48.33;18.83;;;;;;;;;;2114884;28;20420;-42
2022/12/08 00:01:08;;;;;;;46.30;19.85;;;;;;;;;;2115044;28;20044;-41
2022/12/08 00:02:09;;;;;;;43.08;15.75;;;;;;;;;;2115151;28;20040;-41
2022/12/08 00:03:10;;;;;;;51.97;20.90;;;;;;;;;;2114992;28;20176;-41
2022/12/08 00:04:11;;;;;;;49.90;21.52;;;;;;;;;;2114955;28;20047;-40
2022/12/08 00:09:22;;;;;;;50.08;19.90;;;;;;;;;;2114989;28;20097;-41
2022/12/08 00:10:23;;;;;;;52.83;21.73;;;;;;;;;;2114975;28;20499;-40
2022/12/08 00:11:44;;;;;;;54.22;21.33;;;;;;;;;;2114956;28;20276;-40
2022/12/08 00:12:46;;;;;;;55.15;21.63;;;;;;;;;;2115021;28;20066;-40
2022/12/08 00:13:47;;;;;;;52.53;20.75;;;;;;;;;;2114917;28;20056;-40
2022/12/08 00:14:48;;;;;;;56.03;22.00;;;;;;;;;;2115024;28;20047;-41
2022/12/08 00:15:49;;;;;;;53.92;20.77;;;;;;;;;;2114536;28;20036;-41
2022/12/08 00:16:50;;;;;;;48.33;20.85;;;;;;;;;;2115097;28;20484;-40
2022/12/08 00:17:51;;;;;;;58.72;21.52;;;;;;;;;;2114921;28;20514;-41
2022/12/08 00:18:53;;;;;;;58.13;21.27;;;;;;;;;;2114818;28;20047;-41
2022/12/08 00:19:53;;;;;;;52.75;20.27;;;;;;;;;;2114971;28;20047;-41
2022/12/08 00:20:55;;;;;;;45.13;14.98;;;;;;;;;;2115164;28;20044;-46
2022/12/08 00:21:56;;;;;;;54.55;21.38;;;;;;;;;;2114858;28;20047;-45
2022/12/08 00:22:57;;;;;;;48.33;20.73;;;;;;;;;;2115000;28;20551;-45
2022/12/08 00:23:58;;;;;;;51.65;21.23;;;;;;;;;;2115045;28;20059;-46
2022/12/08 00:24:59;;;;;;;48.95;21.08;;;;;;;;;;2114720;28;20247;-45
2022/12/08 00:26:03;;;;;;;54.55;20.75;;;;;;;;;;2114559;28;20148;-45
2022/12/08 00:27:05;;;;;;;53.00;22.45;;;;;;;;;;2114941;28;20289;-45
2022/12/08 00:28:06;;;;;;;51.75;22.92;;;;;;;;;;2114748;28;20131;-46
2022/12/08 00:29:08;;;;;;;56.45;21.55;;;;;;;;;;2114958;28;20048;-45
2022/12/08 00:30:15;;;;;;;54.97;22.33;;;;;;;;;;2114802;28;20044;-45
2022/12/08 00:31:16;;;;;;;60.40;23.60;;;;;;;;;;2114991;28;20051;-45
2022/12/08 00:32:17;;;;;;;53.55;21.77;;;;;;;;;;2114721;28;20050;-45
2022/12/08 00:33:18;;;;;;;58.13;22.50;;;;;;;;;;2114850;28;20082;-45
2022/12/08 00:34:19;;;;;;;55.55;22.58;;;;;;;;;;2114846;28;20036;-45
2022/12/08 00:35:20;;;;;;;47.53;15.02;;;;;;;;;;2114857;28;20524;-45
2022/12/08 00:36:21;;;;;;;53.88;22.05;;;;;;;;;;2114729;28;20097;-45
2022/12/08 00:37:22;;;;;;;47.03;21.20;;;;;;;;;;2114997;28;20073;-45
2022/12/08 00:38:23;;;;;;;57.50;22.90;;;;;;;;;;2114913;28;20051;-45
2022/12/08 00:39:24;;;;;;;59.42;23.75;;;;;;;;;;2114873;28;20067;-45
2022/12/08 00:40:25;;;;;;;57.40;23.85;;;;;;;;;;2114951;28;20043;-45
2022/12/08 00:42:46;;;;;;;53.80;22.48;;;;;;;;;;2114829;28;20051;-45
2022/12/08 00:43:47;;;;;;;61.58;24.40;;;;;;;;;;2114836;28;20039;-45
2022/12/08 00:44:49;;;;;;;60.72;24.20;;;;;;;;;;2114633;28;20043;-46
2022/12/08 00:45:49;;;;;;;58.63;25.25;;;;;;;;;;2114624;28;20088;-45
2022/12/08 00:46:51;;;;;;;56.42;24.40;;;;;;;;;;2114622;28;20048;-45
2022/12/08 00:47:52;;;;;;;56.85;23.98;;;;;;;;;;2114755;28;20442;-47
2022/12/08 00:48:53;;;;;;;55.55;22.17;;;;;;;;;;2114715;28;20044;-45
2022/12/08 00:49:54;;;;;;;53.42;22.50;;;;;;;;;;2114645;28;20101;-46
2022/12/08 00:50:55;;;;;;;59.47;23.60;;;;;;;;;;2114713;28;20400;-45
2022/12/08 00:51:56;;;;;;;61.03;24.25;;;;;;;;;;2114731;28;20079;-45
2022/12/08 00:52:57;;;;;;;51.20;18.40;;;;;;;;;;2114754;28;20123;-45
2022/12/08 00:53:58;;;;;;;51.83;21.85;;;;;;;;;;2114758;28;20140;-45
2022/12/08 00:54:59;;;;;;;55.75;23.27;;;;;;;;;;2114543;28;20116;-45
2022/12/08 00:56:00;;;;;;;60.47;23.85;;;;;;;;;;2114719;28;20093;-45
2022/12/08 00:57:01;;;;;;;56.85;23.92;;;;;;;;;;2114713;28;20089;-46
2022/12/08 00:58:02;;;;;;;57.87;22.87;;;;;;;;;;2114671;28;20048;-47
2022/12/08 00:59:04;;;;;;;57.35;23.25;;;;;;;;;;2114556;28;20055;-46
2022/12/08 01:00:05;;;;;;;;;;;;;;;;;;2115315;28;20047;-42
2022/12/08 01:01:08;;;;;;;44.30;18.45;;;;;;;;;;2114692;28;19926;-42
2022/12/08 01:02:10;;;;;;;55.13;22.58;;;;;;;;;;2114562;28;20406;-42
2022/12/08 01:03:11;;;;;;;49.63;19.60;;;;;;;;;;2114706;28;20043;-42
2022/12/08 01:04:14;;;;;;;43.47;15.10;;;;;;;;;;2114649;28;20043;-42
2022/12/08 01:05:15;;;;;;;51.85;22.20;;;;;;;;;;2114530;28;20051;-42
2022/12/08 01:06:16;;;;;;;47.17;21.20;;;;;;;;;;2114617;28;20050;-42
2022/12/08 01:07:17;;;;;;;45.60;21.45;;;;;;;;;;2114572;28;20290;-42
2022/12/08 01:08:18;;;;;;;44.10;19.73;;;;;;;;;;2114603;28;20040;-42
2022/12/08 01:09:19;;;;;;;46.30;20.25;;;;;;;;;;2114577;28;20039;-42
2022/12/08 01:10:20;;;;;;;45.38;20.40;;;;;;;;;;2114466;28;20039;-42
2022/12/08 01:11:21;;;;;;;46.53;22.48;;;;;;;;;;2114952;28;20116;-41
2022/12/08 01:12:22;;;;;;;42.85;20.67;;;;;;;;;;2114535;28;20438;-42
2022/12/08 01:13:23;;;;;;;50.47;22.95;;;;;;;;;;2114724;28;20043;-42
2022/12/08 01:14:25;;;;;;;48.90;22.83;;;;;;;;;;2114767;28;20040;-42
2022/12/08 01:15:26;;;;;;;56.85;24.10;;;;;;;;;;2114626;28;20055;-42
2022/12/08 01:16:28;;;;;;;43.25;17.15;;;;;;;;;;2114560;28;20420;-42
2022/12/08 01:17:29;;;;;;;53.38;24.27;;;;;;;;;;2114650;28;20047;-42
2022/12/08 01:18:30;;;;;;;57.20;24.53;;;;;;;;;;2114631;28;20065;-42
2022/12/08 01:19:31;;;;;;;49.58;22.25;;;;;;;;;;2114401;28;20415;-42
2022/12/08 01:20:32;;;;;;;51.63;23.98;;;;;;;;;;2114681;28;20100;-42
2022/12/08 01:21:33;;;;;;;44.85;18.15;;;;;;;;;;2114553;28;20476;-42
2022/12/08 01:22:34;;;;;;;55.08;24.83;;;;;;;;;;2114246;28;20051;-42
2022/12/08 01:23:35;;;;;;;50.03;22.92;;;;;;;;;;2114398;28;20047;-42
2022/12/08 01:24:36;;;;;;;52.30;23.20;;;;;;;;;;2114396;28;20523;-42
2022/12/08 01:25:37;;;;;;;51.57;23.50;;;;;;;;;;2114458;28;20126;-42
2022/12/08 01:26:38;;;;;;;48.40;22.67;;;;;;;;;;2114465;28;20047;-42
2022/12/08 01:27:39;;;;;;;50.60;23.00;;;;;;;;;;2114605;28;20055;-42
2022/12/08 01:28:41;;;;;;;54.53;23.60;;;;;;;;;;2114411;28;20287;-42
2022/12/08 01:29:42;;;;;;;47.08;22.55;;;;;;;;;;2114421;28;20389;-42
2022/12/08 01:30:43;;;;;;;47.72;22.90;;;;;;;;;;2114420;28;20055;-42
2022/12/08 01:31:45;;;;;;;54.50;23.10;;;;;;;;;;2114577;28;20061;-42
2022/12/08 01:32:46;;;;;;;57.88;25.15;;;;;;;;;;2114441;28;20069;-42
2022/12/08 01:33:48;;;;;;;58.05;26.08;;;;;;;;;;2114529;28;20058;-42
2022/12/08 01:34:49;;;;;;;52.75;25.20;;;;;;;;;;2114445;28;20051;-42
2022/12/08 01:35:50;;;;;;;57.28;24.08;;;;;;;;;;2114701;28;20073;-42
2022/12/08 01:36:51;;;;;;;47.97;22.80;;;;;;;;;;2114499;28;20101;-42
2022/12/08 01:37:52;;;;;;;51.58;22.75;;;;;;;;;;2114501;28;20058;-42
2022/12/08 01:38:53;;;;;;;52.00;23.15;;;;;;;;;;2114456;28;20531;-42
2022/12/08 01:39:55;;;;;;;53.83;23.60;;;;;;;;;;2114278;28;20039;-42
2022/12/08 01:40:55;;;;;;;58.33;23.65;;;;;;;;;;2114485;28;20047;-42
2022/12/08 01:41:57;;;;;;;52.60;21.33;;;;;;;;;;2114451;28;20047;-42
2022/12/08 01:42:57;;;;;;;51.63;23.05;;;;;;;;;;2114445;28;20048;-42
2022/12/08 01:44:00;;;;;;;52.57;23.37;;;;;;;;;;2113908;28;20051;-42
2022/12/08 01:45:03;;;;;;;45.63;18.45;;;;;;;;;;2113907;28;20064;-42
2022/12/08 01:46:04;;;;;;;48.20;22.17;;;;;;;;;;2114364;28;20060;-42
2022/12/08 01:47:05;;;;;;;53.08;24.23;;;;;;;;;;2114336;28;20051;-42
2022/12/08 01:48:08;;;;;;;43.47;18.30;;;;;;;;;;2114458;28;20055;-42
2022/12/08 01:49:11;;;;;;;52.78;24.50;;;;;;;;;;2114471;28;20051;-42
2022/12/08 01:50:14;;;;;;;51.65;24.55;;;;;;;;;;2114466;28;20176;-42
2022/12/08 01:51:14;;;;;;;50.22;23.35;;;;;;;;;;2114344;28;20044;-42
2022/12/08 01:52:19;;;;;;;55.20;26.27;;;;;;;;;;2114467;28;20043;-42
2022/12/08 01:53:21;;;;;;;55.25;25.63;;;;;;;;;;2114175;28;20430;-42
2022/12/08 01:54:24;;;;;;;58.15;25.60;;;;;;;;;;2114379;28;20044;-42
2022/12/08 01:55:26;;;;;;;48.60;18.10;;;;;;;;;;2114133;28;20035;-42
2022/12/08 01:56:31;;;;;;;46.60;23.08;;;;;;;;;;2114161;28;20484;-42
2022/12/08 01:57:34;;;;;;;53.05;24.48;;;;;;;;;;2114173;28;20382;-42
2022/12/08 01:58:36;;;;;;;56.58;26.00;;;;;;;;;;2114239;28;20096;-41
2022/12/08 01:59:40;;;;;;;50.60;23.55;;;;;;;;;;2114050;28;20056;-42
2022/12/08 02:00:42;;;;;;;45.70;17.90;;;;;;;;;;2114273;28;20096;-42
2022/12/08 02:01:43;;;;;;;;;;;;;;;;;;2114665;28;20047;-42
2022/12/08 02:02:51;;;;;;;46.40;22.27;;;;;;;;;;2114300;28;19927;-42
2022/12/08 02:03:55;;;;;;;51.00;24.92;;;;;;;;;;2114533;28;20074;-45
2022/12/08 02:04:56;;;;;;;50.83;22.92;;;;;;;;;;2114134;28;20419;-46
2022/12/08 02:05:57;;;;;;;54.50;25.27;;;;;;;;;;2114173;28;20055;-46
2022/12/08 02:06:58;;;;;;;52.08;25.27;;;;;;;;;;2114130;28;20051;-46
2022/12/08 02:08:06;;;;;;;57.35;25.70;;;;;;;;;;2114369;28;20047;-46
2022/12/08 02:09:07;;;;;;;48.63;23.48;;;;;;;;;;2114392;28;20055;-41
2022/12/08 02:10:10;;;;;;;57.10;25.30;;;;;;;;;;2114096;28;20081;-42
2022/12/08 02:11:11;;;;;;;53.17;24.95;;;;;;;;;;2114312;28;20069;-41
2022/12/08 02:12:12;;;;;;;55.70;26.17;;;;;;;;;;2114351;28;20063;-41
2022/12/08 02:13:14;;;;;;;56.67;25.77;;;;;;;;;;2114210;28;20054;-41
2022/12/08 02:14:15;;;;;;;47.40;17.90;;;;;;;;;;2114300;28;20059;-41
2022/12/08 02:15:16;;;;;;;58.03;27.90;;;;;;;;;;2113966;28;20050;-41
2022/12/08 02:16:25;;;;;;;53.75;25.02;;;;;;;;;;2114115;28;20044;-41
2022/12/08 02:17:35;;;;;;;53.95;26.15;;;;;;;;;;2114153;28;20635;-41
2022/12/08 02:18:42;;;;;;;53.47;26.02;;;;;;;;;;2113873;28;20139;-41
2022/12/08 02:19:53;;;;;;;56.15;26.50;;;;;;;;;;2114199;28;20048;-41
2022/12/08 02:20:58;;;;;;;55.28;25.95;;;;;;;;;;2114338;28;20054;-41
2022/12/08 02:22:00;;;;;;;53.22;26.27;;;;;;;;;;2114204;28;20077;-41
2022/12/08 02:23:06;;;;;;;48.50;23.63;;;;;;;;;;2114225;28;20059;-41
2022/12/08 02:24:12;;;;;;;54.05;25.25;;;;;;;;;;2114112;28;20059;-41
2022/12/08 02:25:20;;;;;;;47.13;18.42;;;;;;;;;;2114023;28;20047;-41
2022/12/08 02:26:40;;;;;;;52.35;23.60;;;;;;;;;;2114248;28;20070;-41
2022/12/08 02:27:46;;;;;;;54.20;24.38;;;;;;;;;;2114218;28;20044;-41
2022/12/08 02:29:05;;;;;;;52.25;24.50;;;;;;;;;;2109440;28;20161;-41
2022/12/08 02:30:11;;;;;;;51.83;22.30;;;;;;;;;;2105676;28;20044;-46
2022/12/08 02:31:18;;;;;;;57.92;24.73;;;;;;;;;;2105608;28;20048;-43
2022/12/08 02:32:30;;;;;;;44.28;17.15;;;;;;;;;;2105389;28;20051;-41
2022/12/08 02:34:02;;;;;;;54.10;24.45;;;;;;;;;;2105005;28;20052;-41
2022/12/08 02:35:09;;;;;;;56.03;25.13;;;;;;;;;;2079349;28;20050;-41
2022/12/08 02:36:14;;;;;;;53.75;23.58;;;;;;;;;;2079789;28;20048;-41
2022/12/08 02:37:16;;;;;;;49.63;23.25;;;;;;;;;;2084336;28;20482;-41
2022/12/08 02:38:21;;;;;;;45.45;16.20;;;;;;;;;;2105795;28;20044;-41
2022/12/08 02:39:26;;;;;;;46.10;22.80;;;;;;;;;;2105600;28;20396;-42
2022/12/08 02:40:29;;;;;;;41.75;20.70;;;;;;;;;;2105191;28;20047;-44
2022/12/08 02:41:35;;;;;;;49.13;22.67;;;;;;;;;;2105778;28;20097;-41
2022/12/08 02:42:39;;;;;;;57.05;23.50;;;;;;;;;;2105773;28;20484;-45
2022/12/08 02:43:41;;;;;;;54.08;23.75;;;;;;;;;;2105703;28;20398;-45
2022/12/08 02:44:45;;;;;;;43.10;17.83;;;;;;;;;;2110445;28;20052;-42
2022/12/08 02:45:47;;;;;;;49.15;24.08;;;;;;;;;;2114147;28;20044;-45
2022/12/08 02:46:50;;;;;;;55.42;24.77;;;;;;;;;;2114147;28;20047;-41
2022/12/08 02:47:52;;;;;;;52.53;24.40;;;;;;;;;;2114160;28;20381;-41
2022/12/08 02:48:54;;;;;;;41.83;16.98;;;;;;;;;;2114084;28;20056;-45
2022/12/08 02:49:56;;;;;;;53.33;24.95;;;;;;;;;;2114246;28;20043;-41
2022/12/08 02:50:58;;;;;;;49.00;22.42;;;;;;;;;;2114036;28;20051;-41
2022/12/08 02:52:06;;;;;;;49.05;23.23;;;;;;;;;;2114051;28;20039;-45
2022/12/08 02:53:08;;;;;;;51.80;23.25;;;;;;;;;;2114202;28;20051;-41
2022/12/08 02:54:08;;;;;;;43.00;20.60;;;;;;;;;;2113874;28;20400;-41
2022/12/08 02:55:18;;;;;;;45.73;22.63;;;;;;;;;;2114235;28;20263;-42
2022/12/08 02:56:28;;;;;;;51.60;23.38;;;;;;;;;;2114397;28;20059;-41
2022/12/08 02:57:35;;;;;;;47.25;20.38;;;;;;;;;;2115776;28;20042;-44
2022/12/08 02:58:57;;;;;;;54.17;24.67;;;;;;;;;;2115626;28;20515;-41
2022/12/08 03:00:05;;;;;;;57.45;24.33;;;;;;;;;;2108836;28;20294;-41
2022/12/08 03:01:11;;;;;;;50.88;24.02;;;;;;;;;;2115815;28;20044;-41
2022/12/08 03:02:21;;;;;;;55.85;25.27;;;;;;;;;;2115594;28;20507;-41
2022/12/08 03:03:28;;;;;;;43.85;19.40;;;;;;;;;;2115441;28;20446;-46
2022/12/08 03:04:33;;;;;;;49.08;22.45;;;;;;;;;;2115533;28;20063;-41
2022/12/08 09:19:16;;;;;;;156.89;35.21;;;;;;;;;;4259052;27;20632;-41
2022/12/08 09:20:17;;;;;;;;;;;;;;;;;;2130407;27;20046;-41
2022/12/08 09:21:19;;;;;;;143.45;32.38;;;;;;;;;;2129526;27;20031;-41
2022/12/08 09:22:20;;;;;;;;;;;;;;;;;;2130145;27;20051;-41
2022/12/08 09:23:21;;;;;;;95.90;25.52;;;;;;;;;;2129640;27;20276;-41
2022/12/08 09:24:22;;;;;;;155.67;36.73;;;;;;;;;;2129900;27;20139;-44
2022/12/08 09:25:23;;;;;;;75.47;23.20;;;;;;;;;;2129687;27;20046;-44
2022/12/08 09:26:25;;;;;;;108.28;32.30;;;;;;;;;;2122287;27;20558;-44
2022/12/08 09:27:26;;;;;;;147.82;35.10;;;;;;;;;;2121108;28;20040;-42
2022/12/08 09:28:27;;;;;;;169.23;36.90;;;;;;;;;;2121383;28;20046;-45
2022/12/08 09:29:28;;;;;;;143.17;36.93;;;;;;;;;;2121065;28;20078;-45
2022/12/08 09:30:36;;;;;;;85.05;27.48;;;;;;;;;;2121146;28;20542;-45
2022/12/08 09:31:38;;;;;;;170.82;34.08;;;;;;;;;;2121301;28;20070;-42
2022/12/08 09:32:39;;;;;;;105.75;30.05;;;;;;;;;;2122056;27;20048;-46
2022/12/08 09:33:40;;;;;;;160.57;35.83;;;;;;;;;;2121959;27;20070;-45
2022/12/08 09:34:42;;;;;;;144.60;33.95;;;;;;;;;;2121162;28;20044;-45
2022/12/08 09:35:49;;;;;;;126.28;31.30;;;;;;;;;;2121102;28;20054;-45
2022/12/08 09:36:50;;;;;;;121.80;30.88;;;;;;;;;;2121073;28;20069;-45
2022/12/08 09:37:51;;;;;;;83.30;28.10;;;;;;;;;;2120949;28;20126;-47
2022/12/08 09:38:53;;;;;;;97.43;31.40;;;;;;;;;;2121146;28;20039;-46
2022/12/08 09:39:54;;;;;;;104.53;32.83;;;;;;;;;;2121158;28;20051;-46
2022/12/08 09:40:55;;;;;;;86.30;24.13;;;;;;;;;;2120900;28;20041;-45
2022/12/08 09:41:58;;;;;;;137.90;30.20;;;;;;;;;;2121357;28;20089;-45
2022/12/08 09:43:04;;;;;;;131.48;31.30;;;;;;;;;;2120530;27;20051;-45
2022/12/08 09:44:15;;;;;;;118.57;29.92;;;;;;;;;;2121024;28;20046;-46
2022/12/08 09:45:17;;;;;;;94.93;28.00;;;;;;;;;;2120984;28;20059;-45
2022/12/08 09:46:19;;;;;;;64.28;25.80;;;;;;;;;;2121072;28;20051;-46
2022/12/08 09:47:21;;;;;;;152.55;30.67;;;;;;;;;;2121014;28;20499;-45
2022/12/08 09:48:23;;;;;;;169.25;31.55;;;;;;;;;;2121117;28;20066;-46
2022/12/08 09:49:29;;;;;;;133.25;29.33;;;;;;;;;;2120999;28;20054;-46
2022/12/08 09:50:33;;;;;;;187.20;32.75;;;;;;;;;;2120934;28;20117;-45
2022/12/08 09:51:36;;;;;;;125.72;30.42;;;;;;;;;;2120849;28;20055;-45
2022/12/08 09:52:40;;;;;;;179.20;31.17;;;;;;;;;;2120768;28;20138;-46
2022/12/08 09:53:44;;;;;;;171.60;37.33;;;;;;;;;;2121024;28;20043;-45
2022/12/08 09:54:45;;;;;;;151.80;33.35;;;;;;;;;;2120956;28;20093;-45
2022/12/08 09:55:49;;;;;;;144.97;33.97;;;;;;;;;;2120949;28;20047;-45
2022/12/08 09:56:52;;;;;;;201.68;37.40;;;;;;;;;;2121029;28;20066;-45
2022/12/08 09:57:59;;;;;;;91.32;26.13;;;;;;;;;;2121035;28;20051;-45
2022/12/08 09:59:01;;;;;;;143.55;35.80;;;;;;;;;;2121403;28;20044;-41
2022/12/08 10:00:05;;;;;;;164.55;35.65;;;;;;;;;;2120981;28;20055;-41
2022/12/08 10:01:07;;;;;;;83.63;29.42;;;;;;;;;;2120817;28;20190;-42
2022/12/08 10:02:18;;;;;;;142.45;33.65;;;;;;;;;;2120916;28;20055;-42
2022/12/08 10:03:21;;;;;;;157.93;32.65;;;;;;;;;;2121062;28;20047;-46
2022/12/08 10:04:25;;;;;;;132.10;30.88;;;;;;;;;;2121035;28;20051;-46
2022/12/08 10:05:27;;;;;;;138.88;31.70;;;;;;;;;;2120738;28;20367;-45
2022/12/08 10:06:30;;;;;;;140.65;30.95;;;;;;;;;;2120841;28;20484;-46
2022/12/08 10:07:36;;;;;;;103.65;23.00;;;;;;;;;;2120811;28;20423;-45
2022/12/08 10:08:41;;;;;;;127.45;30.88;;;;;;;;;;2120960;28;20054;-46
2022/12/08 10:09:44;;;;;;;196.00;34.25;;;;;;;;;;2120839;28;20043;-46
2022/12/08 10:10:46;;;;;;;89.15;22.08;;;;;;;;;;2120700;28;20058;-45
2022/12/08 10:11:50;;;;;;;102.95;30.13;;;;;;;;;;2120854;28;20039;-46
2022/12/08 10:12:53;;;;;;;154.82;34.30;;;;;;;;;;2120869;28;20098;-45
2022/12/08 10:13:58;;;;;;;173.32;35.92;;;;;;;;;;2120747;28;20043;-46
2022/12/08 10:15:07;;;;;;;146.30;29.73;;;;;;;;;;2121165;28;20048;-45
2022/12/08 10:16:14;;;;;;;88.07;27.25;;;;;;;;;;2120862;28;20047;-45
2022/12/08 10:17:25;;;;;;;81.80;20.67;;;;;;;;;;2120441;27;20055;-46
2022/12/08 10:18:27;;;;;;;87.03;29.40;;;;;;;;;;2120400;28;20046;-45
2022/12/08 10:19:28;;;;;;;;;;;;;;;;;;2115253;28;20059;-45
2022/12/08 10:20:34;;;;;;;156.00;33.00;;;;;;;;;;2115090;28;20022;-45
2022/12/08 10:21:38;;;;;;;81.32;27.60;;;;;;;;;;2115267;28;20043;-45
2022/12/08 10:22:39;;;;;;;116.03;30.35;;;;;;;;;;2115093;28;20043;-45
2022/12/08 10:23:47;;;;;;;144.77;34.05;;;;;;;;;;2115090;28;20127;-44
2022/12/08 10:24:55;;;;;;;109.47;32.60;;;;;;;;;;2115020;28;20051;-45
2022/12/08 10:25:59;;;;;;;97.97;36.05;;;;;;;;;;2114974;28;20043;-47
2022/12/08 10:27:01;;;;;;;178.85;32.60;;;;;;;;;;2114940;28;20072;-45
2022/12/08 10:28:02;;;;;;;149.98;39.67;;;;;;;;;;2115085;28;20046;-45
2022/12/08 10:29:05;;;;;;;140.48;36.67;;;;;;;;;;2115205;28;20043;-45
2022/12/08 10:30:09;;;;;;;133.63;34.15;;;;;;;;;;2115020;28;20044;-45
2022/12/08 10:31:14;;;;;;;185.93;36.95;;;;;;;;;;2115157;28;20077;-45
2022/12/08 10:32:17;;;;;;;151.18;34.88;;;;;;;;;;2114929;28;20236;-45
2022/12/08 10:33:19;;;;;;;110.18;31.40;;;;;;;;;;2115195;28;20385;-42
2022/12/08 10:34:22;;;;;;;154.10;32.15;;;;;;;;;;2115095;28;20058;-42
2022/12/08 10:35:24;;;;;;;114.28;24.45;;;;;;;;;;2115162;28;20052;-42
2022/12/08 10:36:43;;;;;;;140.73;34.33;;;;;;;;;;2115055;28;20051;-42
2022/12/08 10:37:53;;;;;;;121.65;32.10;;;;;;;;;;2115033;28;20055;-42
2022/12/08 10:38:54;;;;;;;97.30;31.42;;;;;;;;;;2114983;28;20051;-42
2022/12/08 10:40:00;;;;;;;127.70;31.80;;;;;;;;;;2115109;28;20047;-42
2022/12/08 10:41:03;;;;;;;100.53;32.05;;;;;;;;;;2114997;28;20140;-42
2022/12/08 10:42:15;;;;;;;157.35;37.22;;;;;;;;;;2114733;28;20044;-42
2022/12/08 10:43:18;;;;;;;119.30;33.75;;;;;;;;;;2114954;28;20432;-42
2022/12/08 10:44:19;;;;;;;175.57;61.30;;;;;;;;;;2114932;28;20101;-42
2022/12/08 10:45:22;;;;;;;179.63;73.28;;;;;;;;;;2115228;28;20059;-45
2022/12/08 10:46:24;;;;;;;164.95;38.85;;;;;;;;;;2115081;28;20047;-45
2022/12/08 10:47:26;;;;;;;111.65;30.70;;;;;;;;;;2114642;28;20496;-44
2022/12/08 10:48:29;;;;;;;97.50;22.00;;;;;;;;;;2114888;28;20070;-45
2022/12/08 10:49:31;;;;;;;126.30;29.10;;;;;;;;;;2114984;28;20055;-45
2022/12/08 10:50:34;;;;;;;150.88;32.70;;;;;;;;;;2114722;28;20484;-46
2022/12/08 10:51:36;;;;;;;169.20;44.53;;;;;;;;;;2115097;28;20488;-42
2022/12/08 10:52:38;;;;;;;180.38;36.47;;;;;;;;;;2114920;28;20055;-42
2022/12/08 10:53:45;;;;;;;162.85;31.50;;;;;;;;;;2114923;28;20389;-42
2022/12/08 10:54:50;;;;;;;117.25;22.55;;;;;;;;;;2114908;28;20043;-41
2022/12/08 10:55:52;;;;;;;95.40;30.05;;;;;;;;;;2115058;28;20480;-44
2022/12/08 10:56:54;;;;;;;173.00;59.33;;;;;;;;;;2121981;28;20047;-41
2022/12/08 10:57:55;;;;;;;156.45;38.67;;;;;;;;;;2123537;28;20042;-44
2022/12/08 10:59:11;;;;;;;116.72;32.53;;;;;;;;;;2123326;28;20035;-41
2022/12/08 11:00:13;;;;;;;258.23;35.13;;;;;;;;;;2122814;28;20047;-44
2022/12/08 11:01:17;;;;;;;169.98;34.67;;;;;;;;;;2122828;28;20411;-41
2022/12/08 11:02:19;;;;;;;171.10;37.03;;;;;;;;;;2122936;28;20075;-45
2022/12/08 11:03:22;;;;;;;123.35;45.08;;;;;;;;;;2122836;28;20494;-44
2022/12/08 11:04:29;;;;;;;161.00;42.42;;;;;;;;;;2123030;28;20475;-41
2022/12/08 11:05:31;;;;;;;94.43;35.55;;;;;;;;;;2122934;28;20130;-41
2022/12/08 11:06:34;;;;;;;148.93;35.50;;;;;;;;;;2123213;28;20104;-44
2022/12/08 11:07:35;;;;;;;98.45;32.85;;;;;;;;;;2123361;28;20043;-44
2022/12/08 11:08:43;;;;;;;162.98;38.70;;;;;;;;;;2123283;28;20047;-41
2022/12/08 11:09:47;;;;;;;147.20;33.35;;;;;;;;;;2123501;28;20061;-44
2022/12/08 11:10:48;;;;;;;189.05;35.20;;;;;;;;;;2123388;28;20399;-45
2022/12/08 11:11:50;;;;;;;195.43;37.40;;;;;;;;;;2123432;28;20051;-45
2022/12/08 11:12:51;;;;;;;164.15;55.88;;;;;;;;;;2123305;28;20039;-41
2022/12/08 11:13:53;;;;;;;144.33;39.47;;;;;;;;;;2115751;28;20043;-40
2022/12/08 11:14:56;;;;;;;296.00;94.00;;;;;;;;;;2114842;28;20284;-41
2022/12/08 11:15:58;;;;;;;144.18;38.65;;;;;;;;;;2114884;28;20044;-41
2022/12/08 11:17:03;;;;;;;129.40;33.20;;;;;;;;;;2114772;28;20091;-44
2022/12/08 11:18:09;;;;;;;104.13;29.77;;;;;;;;;;2114828;28;20052;-47
2022/12/08 11:19:13;;;;;;;82.05;28.42;;;;;;;;;;2114699;28;20480;-40
2022/12/08 11:20:20;;;;;;;147.98;31.55;;;;;;;;;;2114951;28;20055;-44
2022/12/08 11:21:29;;;;;;;182.85;35.40;;;;;;;;;;2114881;28;20047;-44
2022/12/08 11:22:31;;;;;;;219.68;32.58;;;;;;;;;;2114991;28;20040;-42
2022/12/08 11:23:34;;;;;;;153.35;32.83;;;;;;;;;;2114729;28;20047;-40
2022/12/08 11:24:36;;;;;;;201.02;33.33;;;;;;;;;;2114804;28;20047;-41
2022/12/08 17:40:18;;;;;;;88.30;23.72;;;;;;;;;;4293210;27;20325;-41
2022/12/08 17:41:19;;;;;;;;;;;;;;;;;;2138567;27;20042;-41
2022/12/08 17:42:24;;;;;;;60.33;20.27;;;;;;;;;;2138206;27;20369;-41
2022/12/08 17:43:25;;;;;;;67.57;22.75;;;;;;;;;;2135327;27;20042;-41
2022/12/08 17:44:27;;;;;;;146.67;34.73;;;;;;;;;;2129661;27;20111;-41
2022/12/08 17:45:28;;;;;;;79.15;25.30;;;;;;;;;;2129635;27;20046;-45
2022/12/08 17:46:29;;;;;;;99.50;29.73;;;;;;;;;;2129592;27;20237;-45
2022/12/08 17:47:30;;;;;;;93.40;24.58;;;;;;;;;;2129325;27;20051;-45
2022/12/08 17:48:33;;;;;;;67.67;25.57;;;;;;;;;;2129369;27;20047;-45
2022/12/08 17:49:34;;;;;;;118.93;32.70;;;;;;;;;;2129401;27;20062;-45
2022/12/08 17:50:37;;;;;;;119.00;28.40;;;;;;;;;;2129403;27;20070;-45
2022/12/08 17:51:38;;;;;;;100.93;29.90;;;;;;;;;;2129527;27;20051;-44
2022/12/08 17:52:39;;;;;;;105.20;22.20;;;;;;;;;;2129364;27;20050;-45
2022/12/08 17:53:40;;;;;;;89.22;26.45;;;;;;;;;;2129862;27;20051;-44
2022/12/08 17:54:41;;;;;;;238.60;30.70;;;;;;;;;;2129436;27;20051;-44
2022/12/08 17:55:50;;;;;;;130.48;20.17;;;;;;;;;;2129724;27;20046;-45
2022/12/08 17:56:51;;;;;;;129.23;28.83;;;;;;;;;;2129431;27;20047;-45
2022/12/08 17:57:52;;;;;;;131.63;30.05;;;;;;;;;;2129330;27;20552;-48
2022/12/08 17:58:53;;;;;;;83.35;25.45;;;;;;;;;;2129228;27;20047;-44
2022/12/08 17:59:55;;;;;;;226.52;30.35;;;;;;;;;;2129319;27;20046;-46
2022/12/08 18:00:57;;;;;;;130.18;29.10;;;;;;;;;;2129369;27;20084;-46
2022/12/08 18:01:58;;;;;;;103.05;27.92;;;;;;;;;;2129229;27;20039;-45
2022/12/08 18:02:59;;;;;;;233.77;34.13;;;;;;;;;;2129454;27;20050;-46
2022/12/08 18:04:01;;;;;;;130.95;29.45;;;;;;;;;;2129160;27;20083;-46
2022/12/08 18:05:02;;;;;;;81.35;24.17;;;;;;;;;;2129460;27;20487;-45
2022/12/08 18:06:03;;;;;;;148.57;29.40;;;;;;;;;;2129787;27;20050;-46
2022/12/08 18:07:04;;;;;;;175.73;29.42;;;;;;;;;;2129371;27;20488;-46
2022/12/08 18:08:06;;;;;;;129.55;29.70;;;;;;;;;;2129245;27;20070;-45
2022/12/08 18:09:07;;;;;;;87.72;26.48;;;;;;;;;;2129287;27;20039;-46
2022/12/08 18:10:08;;;;;;;76.10;19.60;;;;;;;;;;2129400;27;20047;-46
2022/12/08 18:11:11;;;;;;;132.70;30.08;;;;;;;;;;2129150;27;20422;-45
2022/12/08 18:12:12;;;;;;;133.40;29.02;;;;;;;;;;2129718;27;20114;-41
2022/12/08 18:13:13;;;;;;;99.82;27.58;;;;;;;;;;2129214;27;20047;-41
2022/12/08 18:14:14;;;;;;;151.23;29.10;;;;;;;;;;2129308;27;20063;-41
2022/12/08 18:15:17;;;;;;;178.68;32.60;;;;;;;;;;2129297;27;20108;-41
2022/12/08 18:16:19;;;;;;;97.53;24.30;;;;;;;;;;2129372;27;20057;-41
2022/12/08 18:17:20;;;;;;;231.25;35.47;;;;;;;;;;2129144;27;20448;-41
2022/12/08 18:18:21;;;;;;;62.00;18.97;;;;;;;;;;2129295;27;20043;-41
2022/12/08 18:19:22;;;;;;;133.25;28.42;;;;;;;;;;2129269;27;20359;-41
2022/12/08 18:20:23;;;;;;;183.80;31.13;;;;;;;;;;2129521;27;20483;-41
2022/12/08 18:21:24;;;;;;;237.43;30.67;;;;;;;;;;2129394;27;20058;-41
2022/12/08 18:22:26;;;;;;;277.03;32.20;;;;;;;;;;2129293;27;20510;-41
2022/12/08 18:23:27;;;;;;;176.98;28.48;;;;;;;;;;2129502;27;20054;-45
2022/12/08 18:24:28;;;;;;;67.38;19.67;;;;;;;;;;2129612;27;20524;-41
2022/12/08 18:25:29;;;;;;;166.43;33.55;;;;;;;;;;2129375;27;20084;-41
2022/12/08 18:26:31;;;;;;;237.57;33.13;;;;;;;;;;2129162;27;20043;-41
2022/12/08 18:27:32;;;;;;;;;;;;;;;;;;2129764;27;20047;-41
2022/12/08 18:28:33;;;;;;;118.25;21.00;;;;;;;;;;2129275;27;19985;-41
2022/12/08 18:29:34;;;;;;;98.30;24.85;;;;;;;;;;2129500;27;20051;-41
2022/12/08 18:30:35;;;;;;;139.52;31.83;;;;;;;;;;2129106;27;20072;-41
2022/12/08 18:31:36;;;;;;;160.73;35.78;;;;;;;;;;2129605;27;20081;-41
2022/12/08 18:32:37;;;;;;;153.50;28.85;;;;;;;;;;2129046;27;20450;-41
2022/12/08 18:33:39;;;;;;;268.42;30.40;;;;;;;;;;2129090;27;20050;-41
2022/12/08 18:34:40;;;;;;;144.10;24.42;;;;;;;;;;2129094;27;20513;-41
2022/12/08 18:35:41;;;;;;;171.25;30.95;;;;;;;;;;2129008;27;20047;-41
2022/12/08 18:36:42;;;;;;;154.10;28.90;;;;;;;;;;2129494;27;20134;-45
2022/12/08 18:37:44;;;;;;;208.73;30.25;;;;;;;;;;2129080;27;20042;-45
2022/12/08 18:38:45;;;;;;;194.52;34.67;;;;;;;;;;2128806;27;20050;-44